Time;durP1;ratioP1;P1;durP2;ratioP2;P2;SDS_P1;SDS_P2;PMS_P1;PMS_P2;Temp;Humidity;BMP_temperature;BMP_pressure;BME280_temperature;BME280_humidity;BME280_pressure;Samples;Min_cycle;Max_cycle;Signal;HPM_P1;HPM_P2
2021/03/09 00:01:15;;;;;;;7.83;3.00;;;;;;;5.81;36.40;100581.55;1814342;79;21170;-75
2021/03/09 00:03:43;;;;;;;5.03;3.08;;;;;;;5.81;36.50;100588.19;1814031;79;21538;-76
2021/03/09 00:06:11;;;;;;;6.72;3.58;;;;;;;5.83;36.51;100590.27;1814281;79;21198;-78
2021/03/09 00:08:38;;;;;;;5.05;2.98;;;;;;;5.82;36.48;100588.09;1808754;79;21161;-79
2021/03/09 00:11:05;;;;;;;5.70;3.10;;;;;;;5.83;36.42;100584.95;1791727;80;21451;-76
2021/03/09 00:13:33;;;;;;;9.08;3.85;;;;;;;5.84;36.45;100590.61;1791099;80;21211;-78
2021/03/09 00:16:01;;;;;;;7.12;3.15;;;;;;;5.85;36.31;100589.15;1791195;79;21164;-78
2021/03/09 00:18:29;;;;;;;6.90;3.58;;;;;;;5.83;36.24;100583.13;1791788;80;21654;-80
2021/03/09 00:20:56;;;;;;;8.60;3.90;;;;;;;5.82;36.19;100585.92;1791928;80;21136;-75
2021/03/09 00:23:24;;;;;;;10.35;4.17;;;;;;;5.81;36.20;100584.20;1775278;80;21200;-78
2021/03/09 00:25:53;;;;;;;9.40;3.72;;;;;;;5.82;36.22;100584.59;1725294;83;21227;-76
2021/03/09 00:28:20;;;;;;;7.78;4.17;;;;;;;5.80;36.22;100583.36;1757783;80;21069;-76
2021/03/09 00:30:48;;;;;;;7.08;3.42;;;;;;;5.80;36.08;100592.67;1725378;82;21135;-78
2021/03/09 00:33:17;;;;;;;7.15;3.87;;;;;;;5.78;35.96;100589.80;1747129;81;21154;-76
2021/03/09 00:35:44;;;;;;;6.87;3.62;;;;;;;5.75;36.05;100588.70;1778444;80;21095;-78
2021/03/09 00:38:12;;;;;;;9.73;4.53;;;;;;;5.74;36.10;100587.86;1778637;80;21158;-78
2021/03/09 00:40:40;;;;;;;9.73;4.62;;;;;;;5.73;36.05;100583.52;1778735;80;21147;-78
2021/03/09 00:43:07;;;;;;;8.95;4.35;;;;;;;5.73;36.10;100584.84;1777908;80;21170;-76
2021/03/09 00:45:36;;;;;;;8.93;4.62;;;;;;;5.72;36.07;100592.47;1750796;82;21178;-76
2021/03/09 00:48:04;;;;;;;11.45;4.45;;;;;;;5.72;36.12;100600.44;1752997;81;21681;-77
2021/03/09 00:50:32;;;;;;;9.80;4.70;;;;;;;5.72;36.15;100598.23;1750414;82;22117;-80
2021/03/09 00:52:59;;;;;;;7.55;3.90;;;;;;;5.69;36.18;100599.84;1753129;81;21199;-76
2021/03/09 00:55:27;;;;;;;7.62;4.90;;;;;;;5.70;36.11;100602.84;1750427;82;21676;-77
2021/03/09 00:57:57;;;;;;;8.70;4.12;;;;;;;5.69;36.20;100599.84;1753326;81;21503;-78
2021/03/09 01:00:27;;;;;;;10.40;5.15;;;;;;;5.67;36.17;100599.94;1752347;81;21154;-78
2021/03/09 01:02:56;;;;;;;8.85;4.85;;;;;;;5.67;36.18;100606.58;1787290;80;21176;-78
2021/03/09 01:05:24;;;;;;;11.30;4.92;;;;;;;5.66;36.13;100600.91;1790381;80;21137;-74
2021/03/09 01:07:51;;;;;;;7.65;4.37;;;;;;;5.66;36.05;100598.26;1790689;80;21133;-74
2021/03/09 01:10:20;;;;;;;10.53;5.20;;;;;;;5.65;35.92;100602.38;1788955;80;21117;-75
2021/03/09 01:12:47;;;;;;;6.05;4.08;;;;;;;5.62;35.82;100597.30;1787567;80;21069;-79
2021/03/09 01:15:15;;;;;;;11.43;4.60;;;;;;;5.55;35.88;100603.11;1787443;80;21125;-76
2021/03/09 01:17:43;;;;;;;7.53;3.87;;;;;;;5.52;35.90;100599.36;1786909;80;21184;-78
2021/03/09 01:20:11;;;;;;;5.85;3.83;;;;;;;5.50;35.88;100605.78;1789045;78;21200;-78
2021/03/09 01:22:39;;;;;;;5.60;3.58;;;;;;;5.48;35.99;100605.05;1757256;81;21191;-78
2021/03/09 01:25:08;;;;;;;6.97;3.80;;;;;;;5.48;35.97;100611.20;1758053;81;21584;-80
2021/03/09 01:27:36;;;;;;;5.42;2.95;;;;;;;5.47;35.97;100609.52;1757413;81;21208;-76
2021/03/09 01:30:06;;;;;;;5.33;3.25;;;;;;;5.45;35.83;100610.59;1748114;80;21136;-77
2021/03/09 01:32:34;;;;;;;5.53;3.30;;;;;;;5.41;35.90;100610.50;1725893;83;21133;-79
2021/03/09 01:35:04;;;;;;;7.80;3.35;;;;;;;5.40;35.90;100616.75;1726155;83;21622;-80
2021/03/09 01:37:32;;;;;;;4.40;3.33;;;;;;;5.40;35.88;100620.25;1725595;83;21188;-75
2021/03/09 01:40:00;;;;;;;6.78;3.40;;;;;;;5.41;35.91;100615.81;1726004;83;21639;-75
2021/03/09 01:42:28;;;;;;;5.12;3.02;;;;;;;5.43;35.81;100625.81;1725428;83;21122;-75
2021/03/09 01:44:55;;;;;;;6.22;2.75;;;;;;;5.42;35.75;100628.12;1705726;83;21102;-77
2021/03/09 01:47:23;;;;;;;6.28;3.33;;;;;;;5.41;35.68;100632.59;1725658;83;21149;-79
2021/03/09 01:49:51;;;;;;;5.10;2.90;;;;;;;5.41;35.59;100631.27;1726308;83;21181;-78
2021/03/09 01:52:18;;;;;;;5.50;3.20;;;;;;;5.40;35.58;100638.00;1725916;83;21505;-77
2021/03/09 01:54:45;;;;;;;6.03;3.00;;;;;;;5.39;35.57;100635.83;1706038;83;21623;-76
2021/03/09 01:57:13;;;;;;;6.25;3.05;;;;;;;5.38;35.53;100636.80;1740377;80;21119;-80
2021/03/09 01:59:41;;;;;;;4.65;2.80;;;;;;;5.37;35.50;100635.12;1752190;81;21189;-80
2021/03/09 02:02:10;;;;;;;3.70;2.80;;;;;;;5.37;35.40;100646.23;1742525;82;21172;-76
2021/03/09 02:04:37;;;;;;;4.78;2.77;;;;;;;5.37;35.56;100647.56;1739123;81;21093;-80
2021/03/09 02:07:05;;;;;;;4.53;2.98;;;;;;;5.35;35.39;100655.62;1734174;81;21130;-79
2021/03/09 02:09:35;;;;;;;3.95;2.20;;;;;;;5.32;35.32;100657.22;1737710;81;21193;-81
2021/03/09 02:12:08;;;;;;;4.10;2.77;;;;;;;5.31;35.33;100660.81;1756824;81;21157;-77
2021/03/09 02:15:11;;;;;;;4.53;2.77;;;;;;;5.29;35.27;100658.77;1757017;81;21536;-76
2021/03/09 02:18:17;;;;;;;9.70;3.67;;;;;;;5.29;35.33;100662.27;1759295;80;21150;-81
2021/03/09 02:21:05;;;;;;;4.75;2.70;;;;;;;5.28;35.15;100667.71;1709260;83;21148;-79
2021/03/09 02:23:49;;;;;;;7.47;2.60;;;;;;;5.26;35.20;100674.94;1776016;80;21113;-78
2021/03/09 02:26:39;;;;;;;5.33;2.80;;;;;;;5.25;35.15;100670.59;1771958;80;47472;-77
2021/03/09 02:29:42;;;;;;;;;;;;;;;5.25;35.20;100673.25;1766067;80;21161;-77
2021/03/09 02:32:14;;;;;;;5.90;2.75;;;;;;;5.26;35.14;100670.95;1737386;81;20518;-78
2021/03/09 02:34:47;;;;;;;5.40;3.20;;;;;;;5.25;35.11;100675.91;1719604;81;21597;-78
2021/03/09 02:37:16;;;;;;;5.22;3.33;;;;;;;5.24;35.17;100678.20;1769810;80;21649;-79
2021/03/09 02:39:45;;;;;;;5.70;3.40;;;;;;;5.23;35.20;100681.83;1738280;80;21166;-75
2021/03/09 02:42:23;;;;;;;11.12;4.08;;;;;;;5.23;35.17;100685.33;1768714;80;21134;-78
2021/03/09 02:44:52;;;;;;;6.33;3.72;;;;;;;5.24;35.21;100684.84;1774054;80;21668;-77
2021/03/09 02:47:20;;;;;;;7.25;4.10;;;;;;;5.26;35.09;100690.87;1771684;80;21606;-80
2021/03/09 02:49:47;;;;;;;6.78;3.47;;;;;;;5.26;35.16;100689.55;1765426;80;21126;-78
2021/03/09 02:52:17;;;;;;;8.73;3.85;;;;;;;5.24;35.10;100684.36;1739765;80;21174;-76
2021/03/09 02:54:45;;;;;;;9.70;4.35;;;;;;;5.24;35.17;100683.52;1769449;80;21126;-79
2021/03/09 02:57:12;;;;;;;13.78;3.90;;;;;;;5.25;35.23;100690.52;1771081;80;21158;-82
2021/03/09 02:59:41;;;;;;;10.35;3.42;;;;;;;5.21;35.27;100695.20;1742214;80;21174;-78
2021/03/09 03:02:11;;;;;;;30.68;5.70;;;;;;;5.19;35.21;100697.63;1775914;80;21158;-78
2021/03/09 03:04:48;;;;;;;32.03;5.05;;;;;;;5.19;35.33;100694.49;1741358;80;21496;-79
2021/03/09 03:07:17;;;;;;;9.83;3.42;;;;;;;5.17;35.34;100690.25;1765139;80;21283;-76
2021/03/09 03:09:45;;;;;;;19.23;4.00;;;;;;;5.18;35.30;100694.59;1771585;79;21553;-78
2021/03/09 03:12:13;;;;;;;5.03;3.25;;;;;;;5.18;35.30;100691.94;1772084;80;21139;-79
2021/03/09 03:14:42;;;;;;;8.48;3.08;;;;;;;5.16;35.31;100695.20;1769371;80;21606;-79
2021/03/09 03:17:09;;;;;;;16.85;3.92;;;;;;;5.15;35.35;100696.17;1769312;80;21581;-78
2021/03/09 03:19:39;;;;;;;15.00;3.58;;;;;;;5.13;35.39;100700.73;1769367;80;21226;-78
2021/03/09 03:22:07;;;;;;;16.73;4.30;;;;;;;5.14;35.44;100703.78;1772194;80;21217;-76
2021/03/09 03:24:36;;;;;;;14.35;3.33;;;;;;;5.13;35.44;100712.20;1740482;80;21142;-79
2021/03/09 03:27:06;;;;;;;6.75;4.10;;;;;;;5.14;35.36;100707.28;1740419;81;21174;-75
2021/03/09 03:29:36;;;;;;;5.45;3.37;;;;;;;5.09;35.36;100715.59;1768610;80;21229;-77
2021/03/09 03:32:04;;;;;;;8.75;4.47;;;;;;;5.04;35.40;100717.76;1771633;80;21186;-76
2021/03/09 03:34:34;;;;;;;266.93;18.67;;;;;;;5.01;35.51;100723.77;1742260;80;21613;-77
2021/03/09 03:37:02;;;;;;;93.60;7.75;;;;;;;4.99;35.60;100716.39;1773702;80;21180;-76
2021/03/09 03:39:32;;;;;;;16.62;4.40;;;;;;;5.00;35.65;100718.95;1762212;80;21161;-75
2021/03/09 03:42:01;;;;;;;8.60;4.12;;;;;;;5.02;35.52;100724.98;1774229;79;21145;-76
2021/03/09 03:44:29;;;;;;;8.08;3.50;;;;;;;4.99;35.57;100718.56;1777511;80;21190;-79
2021/03/09 03:46:57;;;;;;;8.65;3.40;;;;;;;4.98;35.70;100725.32;1782069;80;21086;-81
2021/03/09 03:49:24;;;;;;;5.80;3.55;;;;;;;4.96;35.83;100724.13;1781855;80;21167;-80
2021/03/09 03:52:09;;;;;;;7.00;3.27;;;;;;;4.99;35.92;100727.01;1781971;80;21115;-80
2021/03/09 03:54:52;;;;;;;6.87;3.47;;;;;;;5.02;35.84;100724.98;1780476;80;21167;-80
2021/03/09 03:57:27;;;;;;;9.18;3.80;;;;;;;5.03;35.82;100730.64;1781443;80;21232;-79
2021/03/09 03:59:57;;;;;;;5.42;3.20;;;;;;;5.04;35.73;100730.16;1781885;80;21133;-75
2021/03/09 04:02:25;;;;;;;5.10;2.83;;;;;;;5.02;35.67;100730.77;1783751;80;21063;-75
2021/03/09 04:04:53;;;;;;;5.15;3.15;;;;;;;5.01;35.82;100733.91;1782469;80;21213;-79
2021/03/09 04:07:26;;;;;;;7.60;3.67;;;;;;;5.02;35.95;100734.27;1765925;80;21171;-77
2021/03/09 04:09:55;;;;;;;9.20;3.85;;;;;;;5.02;35.96;100740.91;1766580;81;21651;-75
2021/03/09 04:12:25;;;;;;;13.50;4.00;;;;;;;5.04;35.96;100740.78;1766520;80;21157;-78
2021/03/09 04:14:52;;;;;;;7.87;4.35;;;;;;;5.06;35.96;100749.01;1735580;81;21184;-75
2021/03/09 04:17:20;;;;;;;5.33;3.22;;;;;;;5.06;35.86;100751.66;1758178;81;21162;-76
2021/03/09 04:19:49;;;;;;;7.15;3.60;;;;;;;5.08;35.93;100754.19;1758935;81;21158;-78
2021/03/09 04:22:19;;;;;;;9.38;3.55;;;;;;;5.09;35.97;100759.41;1736595;81;21093;-76
2021/03/09 04:24:47;;;;;;;5.97;3.10;;;;;;;5.09;36.01;100753.25;1741948;80;21501;-76
2021/03/09 04:27:23;;;;;;;7.45;4.65;;;;;;;5.12;35.98;100764.11;1767260;80;21169;-78
2021/03/09 04:29:53;;;;;;;9.57;3.90;;;;;;;5.13;36.00;100764.47;1726015;80;21640;-78
2021/03/09 04:32:22;;;;;;;5.28;3.02;;;;;;;5.14;36.03;100763.04;1710950;81;21228;-78
2021/03/09 04:34:50;;;;;;;5.87;3.27;;;;;;;5.18;35.99;100768.94;1732405;81;21718;-76
2021/03/09 04:37:20;;;;;;;9.48;3.42;;;;;;;5.19;36.13;100768.00;1752651;80;21236;-78
2021/03/09 04:39:49;;;;;;;5.53;3.45;;;;;;;5.24;36.00;100773.81;1733127;81;21239;-77
2021/03/09 04:42:17;;;;;;;5.97;3.75;;;;;;;5.25;36.04;100772.84;1756126;81;21156;-75
2021/03/09 04:44:44;;;;;;;7.33;3.40;;;;;;;5.27;36.07;100771.78;1756041;80;21196;-76
2021/03/09 04:47:12;;;;;;;7.15;4.03;;;;;;;5.30;36.15;100773.33;1778591;80;21231;-78
2021/03/09 04:49:40;;;;;;;10.13;3.40;;;;;;;5.32;36.10;100770.09;1764166;81;21611;-76
2021/03/09 04:52:11;;;;;;;12.18;4.17;;;;;;;5.32;36.15;100778.91;1768263;80;21454;-78
2021/03/09 04:54:38;;;;;;;12.82;3.62;;;;;;;5.31;36.08;100783.86;1818176;78;21192;-78
2021/03/09 04:57:07;;;;;;;6.92;3.30;;;;;;;5.30;36.18;100785.28;1739452;81;21191;-78
2021/03/09 04:59:34;;;;;;;36.45;4.67;;;;;;;5.32;36.17;100787.36;1793007;78;21169;-80
2021/03/09 05:02:03;;;;;;;10.72;4.00;;;;;;;5.32;36.18;100792.19;1770510;79;21459;-78
2021/03/09 05:04:31;;;;;;;16.57;4.60;;;;;;;5.34;36.29;100787.59;1790214;78;21522;-78
2021/03/09 05:06:59;;;;;;;7.08;3.00;;;;;;;5.32;36.05;100788.69;1768014;80;21217;-77
2021/03/09 05:09:28;;;;;;;5.53;3.27;;;;;;;5.31;36.08;100789.63;1731671;81;21278;-75
2021/03/09 05:11:57;;;;;;;9.35;4.55;;;;;;;5.29;36.20;100790.24;1728146;82;21197;-80
2021/03/09 05:14:24;;;;;;;5.15;3.27;;;;;;;5.30;36.19;100795.42;1816042;78;21500;-81
2021/03/09 05:16:52;;;;;;;9.30;3.90;;;;;;;5.29;36.19;100791.09;1779769;79;21223;-78
2021/03/09 05:19:21;;;;;;;11.35;4.25;;;;;;;5.31;36.22;100801.12;1753678;81;21193;-79
2021/03/09 05:21:48;;;;;;;18.65;5.55;;;;;;;5.32;36.25;100802.81;1757806;80;21236;-77
2021/03/09 05:24:16;;;;;;;6.85;3.17;;;;;;;5.32;36.25;100801.48;1763045;80;21194;-75
2021/03/09 05:26:43;;;;;;;12.15;4.65;;;;;;;5.33;36.31;100803.66;1724474;81;21140;-76
2021/03/09 05:29:11;;;;;;;5.17;3.35;;;;;;;5.33;36.36;100805.83;1768055;80;21174;-76
2021/03/09 05:31:38;;;;;;;8.00;3.62;;;;;;;5.32;36.40;100804.14;1755834;81;21205;-78
2021/03/09 05:34:06;;;;;;;11.18;4.05;;;;;;;5.35;36.42;100811.02;1755059;80;21220;-76
2021/03/09 05:36:35;;;;;;;20.77;4.85;;;;;;;5.39;36.27;100816.95;1742664;80;21672;-79
2021/03/09 05:39:03;;;;;;;7.60;3.98;;;;;;;5.42;36.21;100816.24;1732548;81;21233;-77
2021/03/09 05:41:33;;;;;;;9.43;3.80;;;;;;;5.45;36.32;100819.13;1730716;80;21220;-75
2021/03/09 05:44:01;;;;;;;14.63;3.67;;;;;;;5.43;36.20;100817.93;1755980;81;21727;-75
2021/03/09 05:46:30;;;;;;;16.37;5.12;;;;;;;5.42;36.25;100817.57;1769807;80;21224;-75
2021/03/09 05:48:59;;;;;;;4.90;3.45;;;;;;;5.44;36.28;100819.61;1702853;82;21176;-80
2021/03/09 05:51:32;;;;;;;6.90;3.27;;;;;;;5.47;36.34;100819.87;1752922;81;21200;-78
2021/03/09 05:54:00;;;;;;;14.80;3.83;;;;;;;5.49;36.39;100825.42;1763366;80;21233;-78
2021/03/09 05:56:27;;;;;;;11.20;3.75;;;;;;;5.50;36.28;100835.11;1762269;80;21185;-77
2021/03/09 05:58:55;;;;;;;9.73;4.62;;;;;;;5.49;36.21;100841.36;1734338;81;21225;-77
2021/03/09 06:01:22;;;;;;;10.78;4.30;;;;;;;5.51;36.23;100838.61;1746782;81;21217;-78
2021/03/09 06:03:50;;;;;;;11.12;4.08;;;;;;;5.51;36.14;100844.77;1763325;80;21165;-77
2021/03/09 06:06:23;;;;;;;18.57;3.92;;;;;;;5.53;36.13;100854.78;1762470;79;21637;-80
2021/03/09 06:08:50;;;;;;;9.63;3.72;;;;;;;5.56;36.19;100851.91;1758030;79;21199;-76
2021/03/09 06:11:20;;;;;;;19.27;3.80;;;;;;;5.62;36.16;100857.72;1720546;81;21466;-75
2021/03/09 06:13:51;;;;;;;6.72;3.50;;;;;;;5.65;36.23;100854.84;1725769;81;21238;-79
2021/03/09 06:16:20;;;;;;;9.58;3.42;;;;;;;5.68;36.16;100866.54;1756313;79;21255;-75
2021/03/09 06:18:56;;;;;;;11.05;4.40;;;;;;;5.73;36.05;100864.41;1757262;79;21206;-75
2021/03/09 06:21:25;;;;;;;20.08;3.52;;;;;;;5.73;35.98;100867.06;1756276;79;21225;-76
2021/03/09 06:23:54;;;;;;;20.05;4.83;;;;;;;5.73;36.03;100868.39;1728325;81;21228;-74
2021/03/09 06:26:37;;;;;;;15.10;3.65;;;;;;;5.81;36.17;100873.95;1796606;78;21211;-77
2021/03/09 06:29:13;;;;;;;8.85;3.60;;;;;;;5.84;36.00;100868.41;1791693;78;21200;-76
2021/03/09 06:31:57;;;;;;;11.38;3.75;;;;;;;5.90;36.18;100881.22;1793340;78;21164;-76
2021/03/09 06:34:39;;;;;;;7.85;3.72;;;;;;;5.94;36.09;100879.20;1773982;78;21140;-80
2021/03/09 06:37:21;;;;;;;8.03;4.25;;;;;;;5.97;35.99;100882.97;1764553;78;21189;-76
2021/03/09 06:40:03;;;;;;;5.47;3.37;;;;;;;5.99;36.08;100887.19;1705900;81;21195;-75
2021/03/09 06:42:36;;;;;;;9.43;3.77;;;;;;;6.07;36.38;100896.75;1704881;81;21596;-77
2021/03/09 06:45:08;;;;;;;10.10;4.72;;;;;;;6.17;36.35;100894.72;1711761;81;21502;-77
2021/03/09 06:47:50;;;;;;;6.50;2.83;;;;;;;6.23;36.09;100887.61;1702052;81;21640;-76
2021/03/09 06:50:35;;;;;;;7.17;3.00;;;;;;;6.24;35.73;100893.28;1695774;83;21175;-76
2021/03/09 06:53:04;;;;;;;7.90;3.83;;;;;;;6.24;35.61;100891.95;1709095;82;21573;-77
2021/03/09 06:55:33;;;;;;;6.85;3.22;;;;;;;6.24;35.52;100891.47;1715646;82;21177;-75
2021/03/09 06:58:11;;;;;;;9.83;3.37;;;;;;;6.28;35.39;100907.55;1709701;81;21222;-78
2021/03/09 07:00:42;;;;;;;4.90;2.60;;;;;;;6.29;35.06;100907.06;1688551;83;21142;-79
2021/03/09 07:03:33;;;;;;;3.52;2.47;;;;;;;6.32;34.92;100905.52;1746353;80;21132;-78
2021/03/09 07:06:02;;;;;;;5.72;2.47;;;;;;;6.31;34.39;100910.44;1747479;80;21145;-75
2021/03/09 07:08:30;;;;;;;9.10;2.90;;;;;;;6.26;34.20;100924.59;1746871;80;21141;-75
2021/03/09 07:10:57;;;;;;;6.85;2.77;;;;;;;6.26;34.16;100921.92;1749849;80;21117;-75
2021/03/09 07:13:26;;;;;;;5.87;3.05;;;;;;;6.28;34.36;100930.17;1747934;80;21104;-76
2021/03/09 07:15:54;;;;;;;3.98;2.60;;;;;;;6.31;34.37;100929.06;1745722;80;21119;-76
2021/03/09 07:18:25;;;;;;;4.33;2.27;;;;;;;6.32;34.15;100930.78;1747682;80;21839;-76
2021/03/09 07:20:55;;;;;;;3.15;2.27;;;;;;;6.30;34.09;100933.55;1730795;81;21124;-76
2021/03/09 07:23:24;;;;;;;7.75;2.62;;;;;;;6.28;33.88;100932.83;1730444;81;21168;-75
2021/03/09 07:25:58;;;;;;;4.10;2.33;;;;;;;6.28;33.92;100934.65;1732190;81;21148;-77
2021/03/09 07:28:30;;;;;;;4.25;2.87;;;;;;;6.27;34.02;100931.63;1735959;79;21610;-77
2021/03/09 07:30:58;;;;;;;4.90;2.60;;;;;;;6.25;34.03;100929.55;1739937;80;21200;-75
2021/03/09 07:33:30;;;;;;;4.80;2.75;;;;;;;6.26;34.02;100928.58;1685126;82;21174;-76
2021/03/09 07:36:06;;;;;;;4.67;3.25;;;;;;;6.24;34.06;100930.52;1714502;81;21279;-76
2021/03/09 07:38:45;;;;;;;2.65;2.15;;;;;;;6.24;33.84;100936.69;1733000;81;21108;-76
2021/03/09 07:41:12;;;;;;;6.22;2.98;;;;;;;6.20;33.78;100939.70;1712695;81;21118;-76
2021/03/09 07:43:40;;;;;;;3.60;3.15;;;;;;;6.17;33.82;100953.23;1712389;81;21667;-77
2021/03/09 07:46:08;;;;;;;3.87;2.90;;;;;;;6.14;33.72;100950.34;1733939;81;21209;-75
2021/03/09 07:48:35;;;;;;;5.25;2.20;;;;;;;6.12;33.59;100950.08;1694806;81;21144;-77
2021/03/09 07:51:06;;;;;;;2.10;1.90;;;;;;;6.12;33.61;100952.25;1720101;80;21175;-77
2021/03/09 07:53:34;;;;;;;3.80;2.10;;;;;;;6.10;33.38;100955.04;1743410;80;21081;-76
2021/03/09 07:56:13;;;;;;;4.33;2.15;;;;;;;6.08;33.36;100957.44;1716397;80;21154;-76
2021/03/09 07:58:41;;;;;;;5.28;2.00;;;;;;;6.05;33.40;100960.35;1769365;79;21176;-75
2021/03/09 08:01:09;;;;;;;6.45;2.90;;;;;;;6.00;33.44;100963.36;1743412;80;21148;-78
2021/03/09 08:03:46;;;;;;;3.42;2.33;;;;;;;5.93;33.63;100970.09;1742852;80;21112;-76
2021/03/09 08:06:17;;;;;;;3.10;2.25;;;;;;;5.91;33.91;100975.98;1743975;80;21124;-75
2021/03/09 08:08:55;;;;;;;7.67;2.70;;;;;;;5.88;34.29;100977.54;1718401;80;21148;-78
2021/03/09 08:11:27;;;;;;;3.08;2.08;;;;;;;5.86;34.64;100982.14;1742344;80;21146;-76
2021/03/09 08:14:08;;;;;;;4.58;3.00;;;;;;;5.84;35.20;100985.38;1742811;80;21155;-77
2021/03/09 08:16:42;;;;;;;4.25;2.75;;;;;;;5.81;35.36;100988.25;1745089;80;21132;-78
2021/03/09 08:19:26;;;;;;;3.65;2.42;;;;;;;5.80;35.42;100992.72;1717366;80;21093;-75
2021/03/09 08:22:02;;;;;;;3.42;2.92;;;;;;;5.81;35.84;101002.87;1746128;80;21148;-76
2021/03/09 08:24:48;;;;;;;9.03;2.83;;;;;;;5.81;36.12;100992.23;1741681;80;21197;-79
2021/03/09 08:27:30;;;;;;;3.05;2.58;;;;;;;5.83;35.87;100995.65;1768546;79;21914;-79
2021/03/09 08:30:10;;;;;;;7.37;2.77;;;;;;;5.82;35.78;100990.81;1744223;80;21085;-76
2021/03/09 08:32:38;;;;;;;4.85;2.87;;;;;;;5.83;35.82;100989.00;1745184;80;21105;-75
2021/03/09 08:35:19;;;;;;;3.05;1.90;;;;;;;5.82;35.73;100989.48;1746073;80;21613;-75
2021/03/09 08:37:49;;;;;;;2.83;2.22;;;;;;;5.81;35.94;100993.56;1743855;80;21112;-77
2021/03/09 08:40:22;;;;;;;2.42;1.87;;;;;;;5.82;35.90;101003.27;1744429;80;21124;-76
2021/03/09 08:43:04;;;;;;;5.35;1.70;;;;;;;5.83;35.88;100999.64;1743435;80;21108;-77
2021/03/09 08:45:40;;;;;;;3.30;1.80;;;;;;;5.84;35.48;100997.34;1745971;80;21116;-77
2021/03/09 08:48:11;;;;;;;3.87;1.95;;;;;;;5.89;35.38;101004.48;1745344;80;21710;-77
2021/03/09 08:50:45;;;;;;;3.58;2.02;;;;;;;6.01;35.57;100997.44;1726450;81;21163;-74
2021/03/09 08:53:32;;;;;;;3.50;2.12;;;;;;;6.18;35.19;101001.50;1748573;80;21927;-78
2021/03/09 08:56:06;;;;;;;4.40;2.22;;;;;;;6.30;34.56;101003.20;1750930;80;21203;-76
2021/03/09 08:58:40;;;;;;;3.77;2.20;;;;;;;6.43;34.42;101003.11;1752855;80;21135;-76
2021/03/09 09:01:22;;;;;;;4.83;2.40;;;;;;;6.55;34.19;101005.68;1753837;80;21121;-78
2021/03/09 09:03:50;;;;;;;6.60;2.52;;;;;;;6.67;33.61;101004.34;1731888;80;21131;-76
2021/03/09 09:06:18;;;;;;;4.22;2.27;;;;;;;6.77;33.29;100994.70;1754376;80;21128;-77
2021/03/09 09:08:45;;;;;;;5.22;2.30;;;;;;;6.87;32.92;100994.33;1705411;80;21129;-77
2021/03/09 09:11:14;;;;;;;4.75;2.92;;;;;;;6.92;32.68;100996.14;1752462;80;21120;-78
2021/03/09 09:13:41;;;;;;;;;;;;;;;6.97;32.49;101005.94;1755026;80;21162;-77
2021/03/09 09:16:29;;;;;;;4.80;2.70;;;;;;;7.02;32.28;101005.09;1729660;80;20258;-78
2021/03/09 09:19:13;;;;;;;5.60;2.80;;;;;;;7.07;32.24;101004.72;1867556;74;22790;-78
2021/03/09 09:21:47;;;;;;;6.35;2.67;;;;;;;7.08;32.26;101005.92;1832058;76;21196;-78
2021/03/09 09:24:23;;;;;;;5.20;2.67;;;;;;;7.14;32.01;101004.61;1833815;76;21687;-77
2021/03/09 09:27:01;;;;;;;4.25;3.10;;;;;;;7.19;31.96;100999.75;1763244;77;21662;-77
2021/03/09 09:29:28;;;;;;;3.35;2.20;;;;;;;7.25;31.73;101001.07;1765911;78;20999;-76
2021/03/09 09:31:57;;;;;;;3.55;2.65;;;;;;;7.31;31.54;101004.56;1788896;79;21167;-75
2021/03/09 09:34:34;;;;;;;3.55;2.17;;;;;;;7.35;31.37;101003.34;1760386;80;21199;-76
2021/03/09 09:37:15;;;;;;;5.08;2.42;;;;;;;7.37;31.19;101004.09;1729115;80;21122;-76
2021/03/09 09:39:43;;;;;;;2.83;2.40;;;;;;;7.37;31.17;101012.92;1759272;80;21708;-78
2021/03/09 09:42:19;;;;;;;5.53;2.80;;;;;;;7.41;31.07;101008.20;1745233;80;21138;-77
2021/03/09 09:44:56;;;;;;;5.67;3.30;;;;;;;7.42;30.66;101013.89;1760741;79;21121;-76
2021/03/09 09:48:39;;;;;;;5.60;2.92;;;;;;;7.44;30.73;101014.59;1617023;86;21275;-76
2021/03/09 09:51:19;;;;;;;5.25;3.08;;;;;;;7.45;30.49;101013.65;1639312;85;21187;-76
2021/03/09 09:54:00;;;;;;;7.20;3.10;;;;;;;7.50;30.79;101022.11;1611689;86;21253;-77
2021/03/09 09:56:30;;;;;;;4.85;3.10;;;;;;;7.58;30.61;101016.98;1622834;85;21736;-75
2021/03/09 09:59:02;;;;;;;5.72;3.37;;;;;;;7.63;30.53;101024.14;1667819;83;21383;-75
2021/03/09 10:01:39;;;;;;;4.60;2.72;;;;;;;7.67;30.39;101021.20;1666522;84;21144;-76
2021/03/09 10:04:25;;;;;;;;;;;;;;;;;;;;;
2021/03/09 10:07:27;;;;;;;5.12;2.85;;;;;;;7.53;29.96;101024.51;1830203;77;22854;-76
2021/03/09 10:10:11;;;;;;;4.62;2.98;;;;;;;7.43;30.08;101023.57;1786478;77;21110;-75
2021/03/09 10:12:44;;;;;;;5.17;3.30;;;;;;;7.36;30.14;101026.39;1827330;76;21378;-79
2021/03/09 10:15:12;;;;;;;3.72;2.77;;;;;;;7.30;30.14;101023.70;1797089;78;21125;-77
2021/03/09 10:17:40;;;;;;;6.92;3.02;;;;;;;7.25;30.37;101021.05;1777493;78;21137;-75
2021/03/09 10:20:22;;;;;;;2.75;2.37;;;;;;;7.22;30.01;101025.28;1803345;78;21117;-77
2021/03/09 10:23:02;;;;;;;7.35;2.90;;;;;;;7.20;29.96;101018.76;1799676;78;21127;-76
2021/03/09 10:26:06;;;;;;;4.58;3.12;;;;;;;7.22;30.00;101014.62;1840497;75;23213;-76
2021/03/09 10:29:14;;;;;;;6.20;2.67;;;;;;;7.15;30.10;101021.44;1781640;77;21715;-75
2021/03/09 10:31:49;;;;;;;5.35;3.00;;;;;;;7.11;30.23;101016.34;1816293;76;21648;-76
2021/03/09 10:34:21;;;;;;;5.58;3.67;;;;;;;7.08;30.01;101024.56;1819062;77;21193;-74
2021/03/09 10:37:00;;;;;;;5.80;3.47;;;;;;;7.01;30.18;101027.37;1809481;77;21198;-76
2021/03/09 10:39:31;;;;;;;4.40;3.47;;;;;;;7.04;30.47;101028.92;1810861;77;21268;-76
2021/03/09 10:42:39;;;;;;;3.92;2.72;;;;;;;7.06;30.56;101019.02;1773671;77;21125;-79
2021/03/09 10:45:37;;;;;;;4.85;2.95;;;;;;;7.11;30.43;101023.48;1864677;75;22503;-77
2021/03/09 10:48:07;;;;;;;4.30;2.75;;;;;;;7.06;30.31;101025.19;1804417;77;21213;-75
2021/03/09 10:50:40;;;;;;;4.90;3.30;;;;;;;7.05;30.21;101027.49;1833620;76;21596;-75
2021/03/09 10:53:09;;;;;;;3.37;2.80;;;;;;;7.03;30.17;101023.24;1834770;76;21211;-76
2021/03/09 10:55:38;;;;;;;5.60;3.15;;;;;;;7.03;30.34;101029.41;1833416;76;21540;-76
2021/03/09 10:58:06;;;;;;;4.45;3.20;;;;;;;7.05;30.49;101034.64;1789521;78;21504;-77
2021/03/09 11:00:36;;;;;;;3.47;2.72;;;;;;;7.04;30.60;101032.47;1735880;78;21196;-76
2021/03/09 11:03:04;;;;;;;3.33;2.70;;;;;;;7.02;30.46;101035.72;1765620;79;21181;-76
2021/03/09 11:05:32;;;;;;;6.37;3.10;;;;;;;6.97;30.61;101033.06;1770547;79;21133;-76
2021/03/09 11:07:59;;;;;;;8.08;3.35;;;;;;;6.96;30.88;101042.87;1767866;79;21168;-78
2021/03/09 11:10:27;;;;;;;5.47;3.50;;;;;;;6.96;30.72;101040.70;1738131;79;21718;-79
2021/03/09 11:13:13;;;;;;;2.77;2.58;;;;;;;6.96;30.82;101038.03;1723918;80;21138;-75
2021/03/09 11:15:39;;;;;;;6.08;3.30;;;;;;;6.97;30.88;101041.05;1777790;79;21118;-76
2021/03/09 11:18:12;;;;;;;;;;;;;;;6.96;30.87;101036.21;1780413;79;21138;-78
2021/03/09 11:20:56;;;;;;;5.47;3.12;;;;;;;6.93;31.00;101041.77;1766160;78;20276;-79
2021/03/09 11:23:32;;;;;;;8.95;3.52;;;;;;;6.93;31.09;101043.59;1736231;80;21218;-79
2021/03/09 11:26:00;;;;;;;4.47;2.92;;;;;;;6.90;31.13;101041.16;1751310;79;21142;-78
2021/03/09 11:28:31;;;;;;;5.15;3.30;;;;;;;6.91;31.21;101053.53;1759379;80;21161;-78
2021/03/09 11:30:58;;;;;;;4.70;3.00;;;;;;;6.90;31.27;101046.48;1734331;80;21588;-77
2021/03/09 11:33:25;;;;;;;21.55;12.33;;;;;;;6.95;31.67;101053.63;1763953;80;21179;-75
2021/03/09 11:35:53;;;;;;;12.43;7.65;;;;;;;6.95;32.43;101050.96;1765376;80;21121;-77
2021/03/09 11:38:21;;;;;;;6.60;5.33;;;;;;;6.92;33.46;101054.73;1761179;80;21122;-75
2021/03/09 11:40:48;;;;;;;8.20;5.58;;;;;;;6.85;34.29;101054.34;1761090;80;21137;-76
2021/03/09 11:43:15;;;;;;;8.60;4.78;;;;;;;6.78;34.54;101054.47;1752674;80;21164;-78
2021/03/09 11:45:42;;;;;;;;;;;;;;;6.69;34.82;101057.84;1752314;79;21170;-76
2021/03/09 11:48:10;;;;;;;7.00;4.75;;;;;;;6.66;35.31;101061.22;1792192;78;20278;-80
2021/03/09 11:50:39;;;;;;;5.08;3.58;;;;;;;6.61;35.50;101061.09;1795164;78;21105;-77
2021/03/09 11:53:07;;;;;;;5.72;4.40;;;;;;;6.58;34.95;101061.80;1764379;78;21620;-81
2021/03/09 11:55:37;;;;;;;6.65;4.30;;;;;;;6.53;34.72;101063.48;1733009;80;21157;-76
2021/03/09 11:58:05;;;;;;;6.50;3.95;;;;;;;6.55;34.45;101068.23;1764499;80;21135;-77